Time;durP1;ratioP1;P1;durP2;ratioP2;P2;SDS_P1;SDS_P2;PMS_P1;PMS_P2;Temp;Humidity;BMP_temperature;BMP_pressure;BME280_temperature;BME280_humidity;BME280_pressure;Samples;Min_cycle;Max_cycle;Signal;HPM_P1;HPM_P2
2022/09/30 00:02:14;;;;;;;2.50;2.30;;;;;;;3.84;100.00;100395.88;4990952;28;20103;-82
2022/09/30 00:05:04;;;;;;;3.58;2.30;;;;;;;5.82;100.00;100718.13;4989903;28;20046;-82
2022/09/30 00:07:51;;;;;;;3.28;2.55;;;;;;;5.79;100.00;100718.47;4961230;29;20127;-82
2022/09/30 00:10:28;;;;;;;4.15;2.47;;;;;;;4.46;100.00;100513.38;4952514;28;20071;-82
2022/09/30 00:13:06;;;;;;;4.35;2.47;;;;;;;3.38;100.00;100352.06;4957222;29;20073;-82
2022/09/30 00:16:10;;;;;;;3.20;2.60;;;;;;;5.79;100.00;100718.47;4932595;29;20044;-82
2022/09/30 00:19:54;;;;;;;5.63;2.70;;;;;;;3.50;100.00;100361.41;4933274;29;20099;-82
2022/09/30 00:22:39;;;;;;;3.20;2.30;;;;;;;3.23;100.00;100334.09;4933826;29;20040;-82
2022/09/30 00:25:55;;;;;;;7.32;3.20;;;;;;;4.23;100.00;100493.72;4935106;29;20036;-81
2022/09/30 00:28:55;;;;;;;4.95;2.90;;;;;;;3.56;100.00;100355.44;4914165;29;20037;-82
2022/09/30 00:31:42;;;;;;;4.30;2.55;;;;;;;5.85;100.00;100715.09;4897210;29;20048;-82
2022/09/30 00:54:34;;;;;;;7.28;3.10;;;;;;;6.01;100.00;100717.78;4919757;29;20132;-82
2022/09/30 00:57:49;;;;;;;4.97;3.20;;;;;;;4.24;100.00;100450.13;4921402;29;20043;-82
2022/09/30 01:01:44;;;;;;;6.57;3.50;;;;;;;6.00;100.00;100720.63;4923304;29;20025;-82
2022/09/30 03:51:39;;;;;;;4.18;2.70;;;;;;;4.88;100.00;100764.81;4981536;28;20046;-79
2022/09/30 03:54:09;;;;;;;4.00;2.88;;;;;;;4.65;100.00;100724.59;4952456;28;20042;-79
2022/09/30 03:56:42;;;;;;;6.68;3.13;;;;;;;4.60;100.00;100730.44;4984075;28;20035;-80
2022/09/30 03:59:27;;;;;;;3.67;3.03;;;;;;;4.81;100.00;100769.97;4976893;28;20019;-80
2022/09/30 04:01:53;;;;;;;6.15;3.30;;;;;;;4.93;100.00;100781.13;4972827;28;20062;-79
2022/09/30 04:04:19;;;;;;;3.97;2.83;;;;;;;4.87;100.00;100769.31;4979283;28;20050;-79
2022/09/30 04:06:44;;;;;;;5.43;3.60;;;;;;;4.70;100.00;100736.44;4960970;28;20514;-79
2022/09/30 04:09:09;;;;;;;4.63;3.35;;;;;;;5.03;100.00;100781.81;4958228;28;20023;-79
2022/09/30 04:11:35;;;;;;;4.60;3.22;;;;;;;5.07;100.00;100780.53;4949464;28;20041;-79
2022/09/30 04:14:01;;;;;;;4.28;3.08;;;;;;;5.04;100.00;100772.84;4968590;28;20042;-79
2022/09/30 04:16:29;;;;;;;5.80;3.42;;;;;;;5.15;100.00;100779.69;4960970;28;20449;-79
2022/09/30 04:18:55;;;;;;;3.67;2.97;;;;;;;5.16;100.00;100771.50;4987826;28;20030;-79
2022/09/30 04:21:21;;;;;;;8.45;3.22;;;;;;;5.10;100.00;100753.53;4971803;28;20058;-79
2022/09/30 04:23:46;;;;;;;5.88;3.65;;;;;;;5.27;100.00;100788.22;4983279;28;20110;-79
2022/09/30 04:26:21;;;;;;;4.00;3.10;;;;;;;5.15;100.00;100748.50;4953214;29;20530;-80
2022/09/30 04:28:47;;;;;;;5.00;3.15;;;;;;;5.34;100.00;100782.06;4962328;28;20109;-79
2022/09/30 04:31:14;;;;;;;3.63;3.13;;;;;;;5.37;100.00;100789.72;4976867;28;20019;-79
2022/09/30 04:33:39;;;;;;;3.42;2.90;;;;;;;5.43;100.00;100782.91;4962085;29;20024;-79
2022/09/30 04:36:06;;;;;;;5.78;3.40;;;;;;;5.51;100.00;100780.22;4957832;28;20122;-79
2022/09/30 04:38:33;;;;;;;4.65;3.28;;;;;;;5.55;100.00;100778.88;4966717;28;20027;-80
2022/09/30 04:41:01;;;;;;;4.32;3.33;;;;;;;5.57;100.00;100784.91;4978675;28;20448;-80
2022/09/30 04:43:27;;;;;;;6.38;3.38;;;;;;;5.58;100.00;100778.56;4971036;28;20062;-80
2022/09/30 04:45:53;;;;;;;3.90;3.35;;;;;;;5.62;100.00;100776.38;4957022;29;20059;-80
2022/09/30 04:48:21;;;;;;;5.00;3.33;;;;;;;5.64;100.00;100779.72;4963054;29;20027;-80
2022/09/30 04:50:46;;;;;;;3.85;3.10;;;;;;;5.60;100.00;100776.56;4978181;28;20073;-80
2022/09/30 04:53:13;;;;;;;3.60;3.00;;;;;;;5.68;100.00;100788.22;4937165;28;20481;-80
2022/09/30 04:55:40;;;;;;;4.78;3.22;;;;;;;4.08;100.00;100527.34;5253008;23;20082;-81
2022/09/30 04:58:05;;;;;;;4.43;3.30;;;;;;;4.01;100.00;100532.50;4979446;28;20097;-80
2022/09/30 05:00:31;;;;;;;4.38;3.22;;;;;;;3.43;100.00;100408.28;4986501;28;20404;-80
2022/09/30 05:02:56;;;;;;;5.70;3.53;;;;;;;4.72;100.00;100619.81;4970313;28;20046;-80
2022/09/30 05:05:22;;;;;;;6.28;3.33;;;;;;;4.98;100.00;100674.84;4986354;28;20062;-80
2022/09/30 05:07:47;;;;;;;5.88;3.40;;;;;;;5.86;100.00;100804.88;4979364;28;20042;-81
2022/09/30 05:10:12;;;;;;;5.03;3.30;;;;;;;5.87;100.00;100791.38;4964037;28;20073;-80
2022/09/30 05:12:43;;;;;;;4.20;3.60;;;;;;;5.62;100.00;100750.50;4936081;29;20039;-79
2022/09/30 05:15:10;;;;;;;4.43;3.30;;;;;;;5.90;100.00;100798.22;4948452;29;20055;-80
2022/09/30 05:17:36;;;;;;;5.32;3.63;;;;;;;5.89;100.00;100796.53;4980420;28;20477;-80
2022/09/30 05:20:03;;;;;;;7.13;3.20;;;;;;;5.90;100.00;100798.22;4970907;28;20053;-80
2022/09/30 05:22:28;;;;;;;4.25;3.45;;;;;;;5.89;100.00;100796.53;4971012;28;20026;-80
2022/09/30 05:24:57;;;;;;;6.60;3.30;;;;;;;5.89;100.00;100799.22;4969295;28;20037;-79
2022/09/30 05:27:23;;;;;;;3.97;3.45;;;;;;;5.92;100.00;100800.72;4968181;29;20082;-80
2022/09/30 05:30:10;;;;;;;4.20;3.42;;;;;;;5.94;100.00;100802.25;4977876;28;20049;-79
2022/09/30 05:32:35;;;;;;;5.90;3.40;;;;;;;5.95;100.00;100795.91;4972210;28;20085;-79
2022/09/30 05:35:02;;;;;;;4.75;3.22;;;;;;;5.84;100.00;100791.72;4953121;29;20106;-80
2022/09/30 05:37:28;;;;;;;6.35;3.50;;;;;;;5.39;100.00;100713.00;4942243;28;20504;-80
2022/09/30 05:39:54;;;;;;;4.47;3.05;;;;;;;5.78;100.00;100764.84;4970488;28;20026;-80
2022/09/30 05:42:19;;;;;;;5.00;3.58;;;;;;;5.95;100.00;100793.22;4937820;29;20384;-80
2022/09/30 05:44:45;;;;;;;5.18;3.50;;;;;;;5.99;100.00;100788.38;4986246;28;20045;-79
2022/09/30 05:47:10;;;;;;;5.55;3.03;;;;;;;5.84;100.00;100753.50;4969356;28;20091;-80
2022/09/30 05:49:36;;;;;;;6.18;3.40;;;;;;;6.11;100.00;100787.88;4960089;28;20027;-80
2022/09/30 05:52:01;;;;;;;5.22;3.10;;;;;;;5.93;100.00;100751.66;4976845;28;20119;-80
2022/09/30 05:54:27;;;;;;;6.50;3.40;;;;;;;6.21;100.00;100787.69;4966999;28;20039;-80
2022/09/30 05:56:53;;;;;;;3.92;2.90;;;;;;;5.79;100.00;100715.78;5002617;28;20055;-79
2022/09/30 05:59:19;;;;;;;6.15;3.00;;;;;;;5.93;100.00;100732.97;4954516;29;20028;-80
2022/09/30 06:01:45;;;;;;;6.22;3.15;;;;;;;6.25;100.00;100786.31;4960352;28;20605;-80
2022/09/30 06:04:11;;;;;;;4.63;3.38;;;;;;;6.28;100.00;100785.16;4947449;28;20041;-80
2022/09/30 06:06:56;;;;;;;4.85;3.13;;;;;;;6.25;100.00;100782.81;4953904;29;20130;-79
2022/09/30 06:09:21;;;;;;;;;;;;;;;6.28;100.00;100785.16;4949699;29;20043;-80
2022/09/30 06:11:47;;;;;;;4.68;2.80;;;;;;;6.18;100.00;100765.81;4958650;28;19922;-79
2022/09/30 06:14:12;;;;;;;3.97;2.55;;;;;;;6.41;100.00;100796.13;4987956;28;20041;-79
2022/09/30 06:16:59;;;;;;;5.53;2.80;;;;;;;6.52;100.00;100790.44;4949882;28;20030;-80
2022/09/30 06:19:26;;;;;;;3.22;2.92;;;;;;;6.22;100.00;100724.38;4955744;28;20042;-80
2022/09/30 06:21:52;;;;;;;3.53;2.65;;;;;;;6.75;100.00;100789.66;4961852;28;20046;-80
2022/09/30 06:24:19;;;;;;;5.20;3.10;;;;;;;6.59;100.00;100756.66;4945255;28;20039;-80
2022/09/30 06:26:44;;;;;;;3.33;2.88;;;;;;;6.65;100.00;100740.91;4946092;29;20490;-79
2022/09/30 06:29:09;;;;;;;3.65;2.88;;;;;;;6.53;100.00;100703.88;4973039;28;20027;-80
2022/09/30 06:31:36;;;;;;;4.95;2.90;;;;;;;7.05;100.00;100780.81;4979840;28;20050;-82
2022/09/30 06:34:02;;;;;;;7.00;3.00;;;;;;;5.55;100.00;100572.53;4957291;29;20054;-81
2022/09/30 06:36:34;;;;;;;6.65;2.95;;;;;;;5.71;100.00;100564.47;4968704;28;20034;-81
2022/09/30 06:39:01;;;;;;;4.10;2.85;;;;;;;6.20;100.00;100619.53;4970747;28;20080;-81
2022/09/30 06:41:27;;;;;;;6.57;3.70;;;;;;;7.13;100.00;100763.03;4978760;28;20034;-79
2022/09/30 06:46:28;;;;;;;5.75;3.33;;;;;;;7.24;100.00;100784.00;5232615;23;20055;-80
2022/09/30 06:48:56;;;;;;;6.47;2.97;;;;;;;6.89;100.00;100702.47;4960251;28;20033;-79
2022/09/30 06:51:25;;;;;;;6.10;3.30;;;;;;;7.51;100.00;100766.56;4965599;28;20034;-80
2022/09/30 06:53:53;;;;;;;4.07;2.53;;;;;;;7.62;100.00;100765.34;4961556;29;20114;-79
2022/09/30 06:56:18;;;;;;;4.82;3.00;;;;;;;7.39;100.00;100723.34;4977883;28;20027;-80
2022/09/30 06:58:45;;;;;;;6.50;4.13;;;;;;;7.60;100.00;100757.47;4967353;28;20035;-79
2022/09/30 07:01:29;;;;;;;7.05;2.60;;;;;;;7.63;100.00;100761.63;4986123;28;20031;-78
2022/09/30 07:03:56;;;;;;;4.73;2.87;;;;;;;7.66;100.00;100764.78;4988860;28;20054;-80
2022/09/30 07:06:23;;;;;;;6.22;2.97;;;;;;;7.75;100.00;100769.06;4953789;29;20417;-79
2022/09/30 07:08:50;;;;;;;6.78;2.60;;;;;;;7.16;100.00;100674.38;4979693;28;20425;-79
2022/09/30 07:11:17;;;;;;;4.40;2.70;;;;;;;7.60;100.00;100735.22;4973667;28;20034;-79
2022/09/30 07:13:44;;;;;;;4.90;2.97;;;;;;;7.74;100.00;100747.78;4967220;28;20398;-78
2022/09/30 07:16:12;;;;;;;4.47;2.80;;;;;;;7.54;100.00;100726.06;4965584;28;20030;-79
2022/09/30 07:18:38;;;;;;;7.05;2.55;;;;;;;7.87;100.00;100757.91;4968640;28;20027;-77
2022/09/30 07:21:04;;;;;;;5.85;2.63;;;;;;;7.92;100.00;100760.88;4944815;28;20082;-79
2022/09/30 07:23:31;;;;;;;6.60;2.65;;;;;;;8.03;100.00;100760.41;4963062;28;20103;-79
2022/09/30 07:26:03;;;;;;;3.97;2.70;;;;;;;7.96;100.00;100714.75;4939788;28;20046;-79
2022/09/30 07:28:32;;;;;;;3.28;2.50;;;;;;;8.33;100.00;100742.47;4962679;28;20112;-78
2022/09/30 07:31:01;;;;;;;5.93;2.70;;;;;;;8.49;100.00;100762.09;4959478;28;20485;-78
2022/09/30 07:33:31;;;;;;;2.97;2.65;;;;;;;8.11;100.00;100709.41;4941867;29;20035;-78
2022/09/30 07:35:59;;;;;;;2.60;2.30;;;;;;;8.47;100.00;100765.78;4966205;28;20111;-78
2022/09/30 07:38:28;;;;;;;6.18;2.70;;;;;;;8.56;100.00;100763.03;4975059;28;20038;-78
2022/09/30 07:46:12;;;;;;;4.32;2.67;;;;;;;8.93;100.00;100764.69;4960299;29;20305;-80
2022/09/30 07:48:46;;;;;;;5.78;2.60;;;;;;;8.60;100.00;100694.56;4953211;29;20091;-80
2022/09/30 07:51:23;;;;;;;4.60;2.58;;;;;;;9.17;100.00;100756.31;4960070;28;20067;-79
2022/09/30 07:53:52;;;;;;;7.53;2.55;;;;;;;9.39;100.00;100757.13;4931908;29;20106;-79
2022/09/30 07:56:19;;;;;;;3.20;2.60;;;;;;;9.52;100.00;100760.97;4951392;29;20054;-78
2022/09/30 07:58:44;;;;;;;3.95;2.75;;;;;;;9.59;100.00;100748.41;4941114;29;20035;-78
2022/09/30 08:01:11;;;;;;;4.47;2.60;;;;;;;9.28;100.00;100712.00;4914752;29;20027;-79
2022/09/30 08:03:39;;;;;;;4.15;2.60;;;;;;;9.31;100.00;100675.88;4962372;28;20031;-80
2022/09/30 08:06:08;;;;;;;5.55;2.90;;;;;;;9.99;100.00;100764.84;4957577;29;20031;-78
2022/09/30 08:08:34;;;;;;;6.28;2.95;;;;;;;10.11;100.00;100757.91;4969527;28;20086;-80
2022/09/30 08:11:00;;;;;;;6.95;3.00;;;;;;;10.20;100.00;100767.47;4922862;29;20507;-80
2022/09/30 08:13:26;;;;;;;5.78;2.60;;;;;;;10.25;100.00;100754.25;4950447;28;20035;-78
2022/09/30 08:15:51;;;;;;;6.00;3.05;;;;;;;10.39;100.00;100759.72;4949012;28;20036;-78
2022/09/30 08:18:17;;;;;;;7.00;2.65;;;;;;;10.33;100.00;100726.38;4934573;29;20142;-78
2022/09/30 08:20:42;;;;;;;5.53;2.80;;;;;;;10.31;100.00;100693.50;4940747;29;20175;-78
2022/09/30 08:23:08;;;;;;;7.88;2.63;;;;;;;10.92;100.00;100765.34;4920633;29;20036;-78
2022/09/30 08:25:33;;;;;;;6.53;2.63;;;;;;;11.11;100.00;100758.34;4931499;29;20035;-79
2022/09/30 08:27:59;;;;;;;5.35;2.42;;;;;;;11.22;100.00;100757.75;4942852;29;20027;-79
2022/09/30 08:30:27;;;;;;;7.07;3.20;;;;;;;10.86;100.00;100698.84;4953840;28;20051;-78
2022/09/30 08:32:53;;;;;;;11.20;3.00;;;;;;;11.15;100.00;100722.72;4958947;29;20142;-79
2022/09/30 08:35:18;;;;;;;10.40;2.80;;;;;;;11.57;100.00;100769.19;4954182;29;20055;-79
2022/09/30 08:37:44;;;;;;;9.52;2.92;;;;;;;11.70;100.00;100771.91;4932666;29;20379;-79
2022/09/30 08:40:26;;;;;;;7.40;3.10;;;;;;;11.70;100.00;100760.28;4934782;29;20094;-79
2022/09/30 08:42:51;;;;;;;9.13;2.97;;;;;;;11.76;100.00;100764.84;4957996;28;20115;-79
2022/09/30 08:46:07;;;;;;;6.35;2.50;;;;;;;11.77;100.00;100745.75;4957410;28;20059;-79
2022/09/30 08:49:16;;;;;;;6.43;3.10;;;;;;;11.95;100.00;100736.22;4963384;28;20031;-79
2022/09/30 08:51:46;;;;;;;5.80;2.70;;;;;;;12.06;100.00;100740.19;4911994;28;20043;-78
2022/09/30 08:54:18;;;;;;;4.72;2.50;;;;;;;12.23;100.00;100761.09;4979136;28;20062;-79
2022/09/30 08:56:46;;;;;;;5.97;2.20;;;;;;;12.35;100.00;100755.88;4962662;28;20393;-79
2022/09/30 08:59:27;;;;;;;8.55;2.53;;;;;;;12.37;100.00;100756.47;4940564;29;20039;-79
2022/09/30 09:02:01;;;;;;;5.78;2.33;;;;;;;12.50;100.00;100755.59;4948237;29;20401;-79
2022/09/30 09:04:28;;;;;;;5.63;2.15;;;;;;;12.66;100.00;100755.13;4943753;29;20038;-79
2022/09/30 09:07:22;;;;;;;5.95;2.25;;;;;;;12.60;100.00;100772.19;4943325;29;20051;-79
2022/09/30 09:10:17;;;;;;;3.27;1.80;;;;;;;12.41;100.00;100757.69;4956894;28;20047;-79
2022/09/30 09:12:58;;;;;;;3.95;1.90;;;;;;;12.62;100.00;100753.91;4941122;29;20274;-79
2022/09/30 09:15:38;;;;;;;3.78;1.70;;;;;;;12.62;100.00;100753.09;4956984;29;20059;-79
2022/09/30 09:19:02;;;;;;;2.30;1.70;;;;;;;12.51;96.76;100730.28;4960079;28;20036;-79
2022/09/30 09:21:30;;;;;;;4.35;1.60;;;;;;;12.94;100.00;100749.38;4888978;29;20021;-79
2022/09/30 09:24:00;;;;;;;3.30;1.70;;;;;;;12.95;99.87;100750.25;4952476;28;20048;-78
2022/09/30 09:26:29;;;;;;;4.15;1.55;;;;;;;12.85;99.16;100733.66;4943131;29;20023;-79
2022/09/30 09:29:20;;;;;;;3.50;1.65;;;;;;;13.05;96.33;100745.19;4943249;29;20040;-79
2022/09/30 09:31:47;;;;;;;4.03;1.70;;;;;;;13.22;98.54;100745.50;4951691;29;20027;-78
2022/09/30 09:34:13;;;;;;;3.88;1.33;;;;;;;13.25;96.76;100741.56;4949731;29;20495;-78
2022/09/30 09:37:14;;;;;;;3.20;1.40;;;;;;;13.27;94.39;100736.75;4957295;29;20031;-80
2022/09/30 09:39:42;;;;;;;7.07;1.48;;;;;;;13.43;94.89;100736.22;4949118;29;20109;-78
2022/09/30 09:42:26;;;;;;;3.22;1.75;;;;;;;13.57;94.26;100731.53;4950337;28;20118;-77
2022/09/30 09:45:45;;;;;;;5.60;1.55;;;;;;;13.57;93.34;100713.44;4958923;29;20043;-77
2022/09/30 09:48:14;;;;;;;4.32;1.40;;;;;;;13.42;92.69;100685.09;4884764;29;20029;-77
2022/09/30 09:50:53;;;;;;;4.40;2.10;;;;;;;13.74;91.96;100727.25;4947321;29;20047;-77
2022/09/30 09:53:31;;;;;;;6.88;2.53;;;;;;;13.59;90.60;100692.44;4947491;29;20023;-78
2022/09/30 09:55:58;;;;;;;2.05;1.10;;;;;;;13.84;90.25;100721.31;4952279;29;20099;-78
2022/09/30 09:58:25;;;;;;;1.35;1.00;;;;;;;13.84;88.44;100719.47;4944756;29;20028;-77
2022/09/30 10:03:26;;;;;;;1.85;0.93;;;;;;;14.00;88.26;100720.72;4943941;29;20023;-76
2022/09/30 10:06:11;;;;;;;3.78;1.30;;;;;;;14.11;88.12;100716.47;4950887;28;20039;-76
2022/09/30 10:09:04;;;;;;;1.60;0.90;;;;;;;14.25;88.04;100712.56;4960670;29;20039;-78
2022/09/30 10:11:29;;;;;;;2.65;0.90;;;;;;;13.72;87.11;100632.00;4961373;29;20125;-77
2022/09/30 10:13:58;;;;;;;1.67;1.00;;;;;;;13.89;86.38;100643.03;4951057;29;20419;-78
2022/09/30 10:16:30;;;;;;;0.70;0.52;;;;;;;14.37;84.93;100720.78;4954204;29;20146;-77
2022/09/30 10:18:56;;;;;;;3.08;0.80;;;;;;;14.25;85.66;100669.25;4963059;28;20027;-78
2022/09/30 10:21:23;;;;;;;1.75;0.90;;;;;;;14.08;85.43;100631.16;4956255;29;20055;-77
2022/09/30 10:23:49;;;;;;;4.15;1.15;;;;;;;14.34;85.09;100653.56;4940294;29;20039;-78
2022/09/30 10:26:23;;;;;;;1.05;0.60;;;;;;;14.64;84.31;100698.81;4952008;29;20031;-78
2022/09/30 10:28:54;;;;;;;1.92;0.70;;;;;;;14.68;84.32;100703.53;4944152;29;20128;-78
2022/09/30 10:31:37;;;;;;;1.23;0.60;;;;;;;14.70;83.45;100704.16;4955306;29;20391;-77
2022/09/30 10:34:45;;;;;;;1.15;0.70;;;;;;;14.72;82.29;100698.47;4968468;28;20041;-77
2022/09/30 10:37:18;;;;;;;3.17;0.70;;;;;;;14.71;83.43;100683.31;4940745;29;20042;-76
2022/09/30 10:39:56;;;;;;;1.92;0.70;;;;;;;14.67;82.29;100672.09;4944592;29;20083;-77
2022/09/30 10:42:33;;;;;;;1.25;0.70;;;;;;;14.78;82.12;100684.84;4966867;28;20038;-77
2022/09/30 10:45:17;;;;;;;2.15;0.63;;;;;;;14.95;81.92;100704.00;4953825;29;20399;-77
2022/09/30 10:47:45;;;;;;;0.70;0.60;;;;;;;15.04;81.66;100689.06;4947968;29;20035;-77
2022/09/30 10:50:15;;;;;;;1.35;0.70;;;;;;;15.04;81.50;100663.84;4957784;29;20494;-77
2022/09/30 10:52:58;;;;;;;1.02;0.52;;;;;;;15.19;80.91;100693.22;4943851;29;20031;-77
2022/09/30 10:55:23;;;;;;;5.03;0.80;;;;;;;15.24;80.48;100698.78;4942016;29;20031;-77
2022/09/30 10:57:51;;;;;;;1.58;0.77;;;;;;;15.12;80.70;100674.34;4955737;28;20038;-76
2022/09/30 11:00:20;;;;;;;0.88;0.70;;;;;;;15.00;80.19;100666.19;4950722;28;20038;-76
2022/09/30 11:03:13;;;;;;;1.42;0.80;;;;;;;15.01;78.51;100694.13;4939820;29;20103;-76
2022/09/30 11:05:44;;;;;;;1.95;0.82;;;;;;;14.93;80.41;100680.88;4958576;28;20502;-77
2022/09/30 11:08:13;;;;;;;1.10;0.70;;;;;;;14.98;80.74;100700.81;4940478;29;20063;-77
2022/09/30 11:10:45;;;;;;;0.70;0.60;;;;;;;14.94;81.05;100686.09;4952329;29;20031;-77
2022/09/30 11:13:39;;;;;;;1.77;0.80;;;;;;;14.94;81.07;100691.50;4942283;28;20047;-77
2022/09/30 11:16:07;;;;;;;1.40;0.80;;;;;;;14.89;81.63;100680.53;4936190;28;20063;-77
2022/09/30 11:18:58;;;;;;;1.45;0.90;;;;;;;14.84;82.30;100682.28;4947091;29;20055;-77
2022/09/30 11:21:44;;;;;;;2.55;1.00;;;;;;;14.89;82.26;100682.41;4943716;29;20026;-77
2022/09/30 11:24:23;;;;;;;0.90;0.80;;;;;;;15.00;81.91;100677.03;4944470;29;20502;-77
2022/09/30 11:27:30;;;;;;;1.52;1.00;;;;;;;15.01;81.58;100661.59;4954623;29;20070;-76
2022/09/30 11:30:18;;;;;;;1.52;1.00;;;;;;;15.17;81.21;100673.66;4874722;29;20065;-78
2022/09/30 11:33:07;;;;;;;2.75;1.20;;;;;;;15.20;81.69;100668.59;4952976;29;20054;-79
2022/09/30 11:35:47;;;;;;;1.65;0.98;;;;;;;15.20;81.63;100673.22;4959885;28;20562;-78
2022/09/30 11:38:31;;;;;;;2.97;1.20;;;;;;;15.19;81.15;100672.34;4948155;28;20048;-78
2022/09/30 11:41:10;;;;;;;2.58;1.20;;;;;;;15.15;81.37;100663.03;4953476;29;20090;-78
2022/09/30 11:43:53;;;;;;;2.10;1.10;;;;;;;15.34;81.52;100674.63;4944254;29;20501;-78
2022/09/30 11:46:32;;;;;;;2.50;1.40;;;;;;;15.43;81.12;100662.38;4963799;28;20094;-78
2022/09/30 11:49:10;;;;;;;2.22;1.40;;;;;;;15.55;80.60;100653.41;4951700;29;20031;-78
2022/09/30 11:51:44;;;;;;;2.75;1.48;;;;;;;15.61;79.48;100656.00;4944166;29;20053;-78
2022/09/30 11:54:29;;;;;;;1.85;1.17;;;;;;;15.54;79.59;100611.91;4946011;28;20038;-78
2022/09/30 11:57:05;;;;;;;2.42;1.60;;;;;;;15.77;78.58;100650.97;4940041;28;20028;-79
2022/09/30 11:59:41;;;;;;;3.92;1.60;;;;;;;15.63;77.96;100626.78;4957303;29;20027;-79
2022/09/30 12:02:43;;;;;;;2.13;1.30;;;;;;;15.55;77.68;100632.53;4958416;28;20082;-79
2022/09/30 12:05:15;;;;;;;2.15;1.20;;;;;;;15.47;78.50;100643.75;4958472;28;20027;-78
2022/09/30 12:08:19;;;;;;;2.20;1.48;;;;;;;15.24;78.95;100655.41;4930951;29;20031;-78
2022/09/30 12:11:11;;;;;;;1.90;1.48;;;;;;;15.01;80.02;100643.47;4943493;28;20509;-79
2022/09/30 12:13:42;;;;;;;2.13;1.20;;;;;;;15.12;80.63;100658.09;4958114;28;20058;-78
2022/09/30 12:16:15;;;;;;;1.65;1.50;;;;;;;14.99;80.82;100615.75;4940761;29;20035;-79
2022/09/30 12:18:46;;;;;;;2.33;1.60;;;;;;;14.92;80.32;100565.47;4942743;29;20027;-79
2022/09/30 12:21:25;;;;;;;1.90;1.20;;;;;;;15.27;80.06;100601.56;4953128;29;20031;-79
2022/09/30 12:24:16;;;;;;;2.83;1.42;;;;;;;15.15;79.48;100572.78;4945904;29;20110;-79
2022/09/30 12:26:41;;;;;;;3.72;1.58;;;;;;;15.51;79.50;100620.53;4958016;28;20118;-79
2022/09/30 12:32:22;;;;;;;2.83;1.42;;;;;;;15.20;79.22;100613.56;4947341;29;20050;-79
2022/09/30 12:35:14;;;;;;;3.38;1.40;;;;;;;15.18;80.13;100631.94;4956790;28;20454;-79
2022/09/30 12:37:55;;;;;;;2.72;1.15;;;;;;;15.10;81.67;100645.81;4944776;29;20030;-79
2022/09/30 12:40:45;;;;;;;2.78;1.25;;;;;;;15.03;84.11;100646.78;4959293;28;20549;-79
2022/09/30 12:43:48;;;;;;;4.03;1.40;;;;;;;14.85;86.88;100641.41;4936265;29;20043;-78
2022/09/30 12:46:49;;;;;;;2.97;1.25;;;;;;;14.61;89.50;100637.00;4948092;29;20047;-79
2022/09/30 12:49:20;;;;;;;2.78;1.80;;;;;;;14.47;91.47;100637.13;4975266;28;20568;-79
2022/09/30 12:51:54;;;;;;;8.40;4.90;;;;;;;14.30;93.16;100614.44;4956833;28;20174;-80
2022/09/30 12:54:31;;;;;;;17.17;10.77;;;;;;;14.37;94.27;100620.63;4947510;29;20051;-80
2022/09/30 13:07:33;;;;;;;8.25;5.10;;;;;;;14.55;97.17;100598.09;4956639;29;20090;-80
2022/09/30 14:22:09;;;;;;;4.80;2.42;;;;;;;14.43;100.00;100535.75;4893869;29;20136;-81
2022/09/30 14:24:40;;;;;;;4.55;2.60;;;;;;;14.22;100.00;100490.28;4893203;29;20045;-79
2022/09/30 14:27:45;;;;;;;10.23;9.00;;;;;;;14.51;100.00;100519.22;4859868;29;20116;-81
2022/09/30 14:30:30;;;;;;;2.45;1.83;;;;;;;14.54;100.00;100521.47;4898342;29;20029;-81
2022/09/30 14:33:34;;;;;;;3.08;1.85;;;;;;;14.52;100.00;100514.63;4910495;29;20040;-81
2022/09/30 14:36:11;;;;;;;5.03;1.80;;;;;;;13.63;100.00;100358.38;4908826;29;20037;-80
2022/09/30 14:42:02;;;;;;;2.53;1.48;;;;;;;14.64;100.00;100512.78;4894775;29;20053;-80
2022/09/30 14:44:48;;;;;;;3.78;1.50;;;;;;;14.62;100.00;100503.25;4892023;29;20103;-79
2022/09/30 14:47:21;;;;;;;2.13;1.45;;;;;;;12.35;100.00;100151.50;4891970;29;20066;-80
2022/09/30 14:49:48;;;;;;;3.17;1.50;;;;;;;14.23;100.00;100449.44;4887955;29;20500;-79
2022/09/30 14:52:44;;;;;;;3.33;1.50;;;;;;;14.66;100.00;100496.28;4888857;29;20040;-80
2022/09/30 14:55:49;;;;;;;2.65;1.30;;;;;;;14.65;100.00;100486.53;4891008;29;20029;-81
2022/09/30 14:58:27;;;;;;;3.22;1.48;;;;;;;13.37;100.00;100272.25;4887543;29;20522;-79
2022/09/30 15:01:13;;;;;;;2.85;1.55;;;;;;;14.66;100.00;100490.88;4886168;29;20041;-80
2022/09/30 15:03:44;;;;;;;2.72;1.30;;;;;;;14.65;100.00;100484.63;4877137;29;20169;-79
2022/09/30 15:06:37;;;;;;;6.88;2.03;;;;;;;14.63;100.00;100465.06;4878293;29;20051;-79
2022/09/30 15:09:22;;;;;;;5.97;1.60;;;;;;;14.51;100.00;100467.78;4883691;29;20037;-79
2022/09/30 15:11:47;;;;;;;3.63;1.30;;;;;;;14.46;100.00;100464.09;4887405;29;20036;-79
2022/09/30 15:14:16;;;;;;;2.97;1.25;;;;;;;14.43;100.00;100478.91;4886727;29;20131;-79
2022/09/30 15:16:47;;;;;;;2.60;1.30;;;;;;;14.30;100.00;100466.44;4886471;29;20056;-78
2022/09/30 15:19:40;;;;;;;4.70;1.98;;;;;;;14.18;100.00;100479.09;4868048;29;20037;-78
2022/09/30 15:22:09;;;;;;;5.03;2.10;;;;;;;14.06;100.00;100473.63;4876911;29;20119;-78
2022/09/30 15:24:54;;;;;;;4.18;2.20;;;;;;;13.92;100.00;100466.78;4889617;29;20036;-79
2022/09/30 15:27:22;;;;;;;2.90;1.92;;;;;;;13.85;100.00;100444.41;4886901;29;20025;-79
2022/09/30 15:30:08;;;;;;;4.85;1.83;;;;;;;13.62;100.00;100416.22;4906836;29;20037;-80
2022/09/30 15:32:35;;;;;;;4.25;2.00;;;;;;;13.03;100.00;100314.28;4905719;29;20080;-79
2022/09/30 15:35:14;;;;;;;6.72;2.22;;;;;;;13.66;100.00;100426.56;4905016;29;20121;-79
2022/09/30 15:37:42;;;;;;;3.78;2.20;;;;;;;13.86;100.00;100460.38;4901157;29;20568;-80
2022/09/30 15:43:14;;;;;;;4.97;1.88;;;;;;;13.67;100.00;100466.88;4900804;29;20044;-80
2022/09/30 15:45:42;;;;;;;4.40;2.10;;;;;;;13.58;100.00;100470.97;4903829;29;20779;-80
2022/09/30 15:48:34;;;;;;;3.83;1.65;;;;;;;13.52;100.00;100459.19;4904581;29;20028;-80
2022/09/30 15:51:25;;;;;;;5.45;1.50;;;;;;;12.90;100.00;100371.97;4871171;29;20073;-81
2022/09/30 15:54:26;;;;;;;4.47;1.83;;;;;;;13.39;100.00;100470.16;5096870;27;20508;-81
2022/09/30 15:56:51;;;;;;;3.95;1.50;;;;;;;12.36;100.00;100320.41;5110779;28;20040;-81
2022/09/30 15:59:18;;;;;;;9.30;1.77;;;;;;;10.93;100.00;100113.69;5082008;28;20043;-81
2022/09/30 16:02:02;;;;;;;7.03;2.00;;;;;;;13.16;100.00;100463.50;5102186;28;20047;-82
2022/09/30 16:04:28;;;;;;;5.20;1.90;;;;;;;12.80;100.00;100414.88;5081242;28;20341;-82
2022/09/30 16:07:18;;;;;;;10.00;2.05;;;;;;;13.10;100.00;100461.69;5079550;28;20506;-81
2022/09/30 16:09:49;;;;;;;8.90;1.80;;;;;;;11.73;100.00;100261.22;5090226;28;20024;-82
2022/09/30 17:28:26;;;;;;;6.50;2.80;;;;;;;12.21;100.00;100388.19;5126308;23;20119;31
2022/09/30 17:30:58;;;;;;;5.30;2.78;;;;;;;12.23;100.00;100404.19;4914533;29;20054;-82
2022/09/30 17:34:08;;;;;;;5.55;2.83;;;;;;;12.27;100.00;100380.28;4930613;29;20513;-81
2022/09/30 17:36:55;;;;;;;5.65;2.58;;;;;;;12.29;100.00;100389.81;4927460;29;20036;-81
2022/09/30 18:18:06;;;;;;;4.95;2.47;;;;;;;12.15;100.00;100351.34;4927655;29;20518;-81
2022/09/30 18:38:36;;;;;;;8.43;2.47;;;;;;;10.31;100.00;100062.34;4922239;29;20095;-80
2022/09/30 18:41:14;;;;;;;7.28;3.20;;;;;;;11.56;100.00;100270.91;4894125;29;20040;-81
2022/09/30 21:49:38;;;;;;;4.53;0.80;;;;;;;12.21;100.00;100309.16;4718609;23;20473;-82
2022/09/30 21:52:08;;;;;;;2.65;0.70;;;;;;;11.79;100.00;100256.81;4908004;29;20060;-82
2022/09/30 21:54:34;;;;;;;3.40;0.90;;;;;;;11.93;100.00;100298.81;4900918;29;20484;-83
2022/09/30 21:56:59;;;;;;;2.00;0.82;;;;;;;11.63;100.00;100272.50;4902480;29;20028;-81
2022/09/30 21:59:24;;;;;;;3.17;0.80;;;;;;;11.64;100.00;100282.22;4901883;29;20047;-81
2022/09/30 22:01:51;;;;;;;2.72;0.70;;;;;;;11.56;100.00;100292.47;4898423;29;20028;-81
2022/09/30 22:04:18;;;;;;;7.50;0.93;;;;;;;11.58;100.00;100306.53;4931356;29;20052;-81
2022/09/30 22:07:02;;;;;;;7.03;1.00;;;;;;;11.50;100.00;100296.84;4920097;29;20423;-81
2022/09/30 22:09:28;;;;;;;5.35;0.82;;;;;;;11.44;100.00;100295.84;4895466;29;20040;-81